Time;durP1;ratioP1;P1;durP2;ratioP2;P2;SDS_P1;SDS_P2;PMS_P1;PMS_P2;Temp;Humidity;BMP_temperature;BMP_pressure;BME280_temperature;BME280_humidity;BME280_pressure;Samples;Min_cycle;Max_cycle;Signal;HPM_P1;HPM_P2
2024/01/20 00:02:25;;;;;;;8.13;6.97;;;;;;;;;;5056269;28;20377;-80
2024/01/20 00:04:51;;;;;;;7.07;6.38;;;;;;;;;;5055404;28;20369;-80
2024/01/20 00:07:18;;;;;;;7.25;6.55;;;;;;;;;;5055337;28;20452;-80
2024/01/20 00:09:43;;;;;;;8.00;7.20;;;;;;;;;;5056011;28;20380;-80
2024/01/20 00:12:09;;;;;;;8.07;6.57;;;;;;;;;;5055738;28;20728;-80
2024/01/20 00:14:35;;;;;;;8.48;7.20;;;;;;;;;;5055650;28;20439;-80
2024/01/20 00:17:02;;;;;;;8.55;6.97;;;;;;;;;;5055358;28;20385;-80
2024/01/20 00:19:28;;;;;;;8.65;7.10;;;;;;;;;;5055599;28;20431;-80
2024/01/20 00:21:54;;;;;;;8.70;7.30;;;;;;;;;;5055757;28;20409;-80
2024/01/20 00:24:20;;;;;;;7.45;6.75;;;;;;;;;;5056470;28;20385;-80
2024/01/20 00:26:46;;;;;;;7.72;6.93;;;;;;;;;;5056777;28;20377;-80
2024/01/20 00:29:12;;;;;;;8.63;7.15;;;;;;;;;;5056615;28;20387;-80
2024/01/20 00:31:38;;;;;;;7.57;6.82;;;;;;;;;;5056621;28;20378;-80
2024/01/20 00:34:04;;;;;;;7.53;6.80;;;;;;;;;;5056397;28;20382;-80
2024/01/20 00:36:30;;;;;;;7.22;6.53;;;;;;;;;;5057897;28;20382;-80
2024/01/20 00:38:56;;;;;;;7.25;6.55;;;;;;;;;;5076202;28;20880;-80
2024/01/20 00:41:22;;;;;;;7.55;6.78;;;;;;;;;;5076805;28;20414;-80
2024/01/20 00:43:48;;;;;;;7.13;6.43;;;;;;;;;;5076338;28;20376;-80
2024/01/20 00:46:14;;;;;;;7.85;7.03;;;;;;;;;;5058197;28;20380;-80
2024/01/20 00:48:40;;;;;;;9.50;7.00;;;;;;;;;;5076141;28;20457;-80
2024/01/20 00:51:06;;;;;;;7.57;6.88;;;;;;;;;;5076390;28;20382;-80
2024/01/20 00:53:32;;;;;;;8.97;6.80;;;;;;;;;;5076549;28;20541;-80
2024/01/20 00:55:58;;;;;;;8.32;6.95;;;;;;;;;;5075931;28;20399;-80
2024/01/20 00:58:24;;;;;;;7.70;7.00;;;;;;;;;;5075888;28;20423;-80
2024/01/20 01:00:50;;;;;;;8.02;7.22;;;;;;;;;;5075683;28;20437;-80
2024/01/20 01:03:16;;;;;;;8.30;7.43;;;;;;;;;;5075220;28;20383;-80
2024/01/20 01:05:42;;;;;;;7.85;6.97;;;;;;;;;;5075735;28;20379;-80
2024/01/20 01:08:08;;;;;;;8.07;7.28;;;;;;;;;;5075471;28;20378;-80
2024/01/20 01:10:34;;;;;;;7.85;7.10;;;;;;;;;;5075633;28;20376;-80
2024/01/20 01:13:00;;;;;;;8.25;7.18;;;;;;;;;;5075720;28;20380;-80
2024/01/20 01:15:28;;;;;;;7.80;7.00;;;;;;;;;;5075483;28;20388;-80
2024/01/20 01:17:54;;;;;;;8.35;7.47;;;;;;;;;;5075419;28;20379;-80
2024/01/20 01:20:20;;;;;;;9.40;7.60;;;;;;;;;;5075113;28;20494;-80
2024/01/20 01:22:46;;;;;;;8.15;7.45;;;;;;;;;;5076083;28;20403;-80
2024/01/20 01:25:12;;;;;;;9.32;7.78;;;;;;;;;;5075392;28;20399;-80
2024/01/20 01:27:38;;;;;;;7.93;7.20;;;;;;;;;;5075027;28;20379;-80
2024/01/20 01:30:05;;;;;;;9.13;7.60;;;;;;;;;;5075392;28;20806;-80
2024/01/20 01:32:31;;;;;;;8.73;7.83;;;;;;;;;;5075405;28;20441;-81
2024/01/20 01:34:57;;;;;;;9.45;8.43;;;;;;;;;;5057419;28;20384;-80
2024/01/20 01:37:22;;;;;;;9.33;8.43;;;;;;;;;;5070451;28;20446;-80
2024/01/20 01:39:48;;;;;;;9.73;8.63;;;;;;;;;;5055015;28;20933;-80
2024/01/20 01:42:14;;;;;;;10.05;8.27;;;;;;;;;;5054928;28;20419;-80
2024/01/20 01:44:40;;;;;;;10.80;8.57;;;;;;;;;;5054264;28;20389;-80
2024/01/20 01:47:07;;;;;;;9.77;8.57;;;;;;;;;;5054748;28;20378;-80
2024/01/20 01:49:33;;;;;;;9.55;8.38;;;;;;;;;;5054505;28;20401;-80
2024/01/20 01:51:59;;;;;;;9.32;8.43;;;;;;;;;;5054645;28;20839;-80
2024/01/20 01:54:25;;;;;;;9.05;8.15;;;;;;;;;;5055723;28;20385;-81
2024/01/20 01:56:52;;;;;;;9.45;8.45;;;;;;;;;;5054494;28;20997;-80
2024/01/20 01:59:18;;;;;;;11.68;8.95;;;;;;;;;;5054633;28;20401;-80
2024/01/20 02:01:44;;;;;;;10.70;9.68;;;;;;;;;;5054481;28;20771;-80
2024/01/20 02:04:10;;;;;;;10.63;9.52;;;;;;;;;;5036602;28;20381;-80
2024/01/20 02:06:36;;;;;;;11.30;10.10;;;;;;;;;;5054460;28;20382;-80
2024/01/20 02:09:03;;;;;;;10.00;9.10;;;;;;;;;;5054340;28;20724;-80
2024/01/20 02:11:29;;;;;;;10.80;9.70;;;;;;;;;;5054404;28;20435;-80
2024/01/20 02:13:56;;;;;;;10.88;9.77;;;;;;;;;;5054184;28;20385;-80
2024/01/20 02:16:22;;;;;;;11.60;9.65;;;;;;;;;;5056561;28;20871;-80
2024/01/20 02:18:48;;;;;;;10.85;9.75;;;;;;;;;;5058224;28;20381;-80
2024/01/20 02:21:14;;;;;;;12.35;9.32;;;;;;;;;;5058203;28;20455;-80
2024/01/20 02:23:41;;;;;;;10.73;9.63;;;;;;;;;;5072197;28;20445;-82
2024/01/20 02:26:07;;;;;;;10.98;9.88;;;;;;;;;;5078004;28;20417;-81
2024/01/20 02:28:33;;;;;;;11.80;10.50;;;;;;;;;;5078005;28;20391;-81
2024/01/20 02:30:59;;;;;;;11.13;10.03;;;;;;;;;;5077897;28;20444;-81
2024/01/20 02:33:26;;;;;;;11.30;10.20;;;;;;;;;;5077705;28;20387;-81
2024/01/20 02:35:52;;;;;;;11.37;10.17;;;;;;;;;;5060014;28;20392;-81
2024/01/20 02:38:17;;;;;;;12.13;10.52;;;;;;;;;;5059984;28;20456;-81
2024/01/20 02:40:43;;;;;;;11.57;10.37;;;;;;;;;;5077686;28;20500;-81
2024/01/20 02:43:09;;;;;;;13.65;11.00;;;;;;;;;;5077815;28;20372;-81
2024/01/20 02:45:35;;;;;;;11.13;9.90;;;;;;;;;;5077690;28;20372;-81
2024/01/20 02:48:01;;;;;;;12.27;11.07;;;;;;;;;;5077470;28;20722;-81
2024/01/20 02:50:27;;;;;;;15.02;10.95;;;;;;;;;;5077724;28;20445;-81
2024/01/20 02:52:53;;;;;;;13.52;11.30;;;;;;;;;;5078102;28;20411;-81
2024/01/20 02:55:19;;;;;;;13.05;11.40;;;;;;;;;;5078010;28;20434;-80
2024/01/20 02:57:45;;;;;;;13.30;11.47;;;;;;;;;;5077358;28;20398;-80
2024/01/20 03:00:12;;;;;;;13.52;11.20;;;;;;;;;;5077050;28;20411;-80
2024/01/20 03:02:38;;;;;;;12.45;11.15;;;;;;;;;;5077146;28;20380;-81
2024/01/20 03:05:04;;;;;;;12.17;10.93;;;;;;;;;;5077426;28;20384;-80
2024/01/20 03:07:30;;;;;;;11.40;10.30;;;;;;;;;;5077179;28;20383;-81
2024/01/20 03:09:56;;;;;;;12.13;10.10;;;;;;;;;;5076912;28;20707;-81
2024/01/20 03:12:22;;;;;;;12.43;10.95;;;;;;;;;;5076649;28;20376;-81
2024/01/20 03:14:48;;;;;;;11.90;10.70;;;;;;;;;;5076971;28;20733;-81
2024/01/20 03:17:14;;;;;;;12.02;10.65;;;;;;;;;;5077870;28;20383;-81
2024/01/20 03:19:40;;;;;;;13.90;11.18;;;;;;;;;;5077998;28;20825;-82
2024/01/20 03:22:06;;;;;;;12.23;11.02;;;;;;;;;;5077824;28;20442;-81
2024/01/20 03:24:32;;;;;;;12.68;10.98;;;;;;;;;;5077488;28;20384;-81
2024/01/20 03:26:58;;;;;;;13.20;11.13;;;;;;;;;;5077616;28;20382;-81
2024/01/20 03:29:24;;;;;;;11.40;10.20;;;;;;;;;;5077809;28;20375;-81
2024/01/20 03:31:51;;;;;;;12.63;11.23;;;;;;;;;;5077543;28;20380;-81
2024/01/20 03:34:17;;;;;;;13.32;10.95;;;;;;;;;;5075230;28;20379;-81
2024/01/20 03:36:43;;;;;;;11.50;10.30;;;;;;;;;;5057492;28;20396;-80
2024/01/20 03:39:09;;;;;;;12.83;10.57;;;;;;;;;;5057207;28;20431;-81
2024/01/20 03:41:35;;;;;;;12.30;11.00;;;;;;;;;;5057301;28;20819;-81
2024/01/20 03:44:01;;;;;;;12.90;11.60;;;;;;;;;;5057490;28;20381;-81
2024/01/20 03:46:27;;;;;;;11.80;10.60;;;;;;;;;;5067296;28;20402;-80
2024/01/20 03:48:53;;;;;;;15.10;12.17;;;;;;;;;;5077091;28;20433;-80
2024/01/20 03:51:22;;;;;;;14.07;12.07;;;;;;;;;;5077589;28;20407;-80
2024/01/20 03:53:48;;;;;;;14.93;12.47;;;;;;;;;;5077297;28;20435;-81
2024/01/20 03:56:14;;;;;;;13.95;12.45;;;;;;;;;;5077168;28;20699;-80
2024/01/20 03:58:40;;;;;;;12.85;11.48;;;;;;;;;;5076658;28;20425;-80
2024/01/20 04:01:06;;;;;;;14.43;12.73;;;;;;;;;;5076329;28;20502;-80
2024/01/20 04:03:33;;;;;;;14.23;12.60;;;;;;;;;;5076939;28;20899;-80
2024/01/20 04:05:59;;;;;;;14.90;12.18;;;;;;;;;;5076685;28;20372;-80
2024/01/20 04:08:25;;;;;;;14.60;12.77;;;;;;;;;;5076808;28;20395;-80
2024/01/20 04:10:51;;;;;;;13.93;11.93;;;;;;;;;;5076653;28;20877;-80
2024/01/20 04:13:17;;;;;;;15.57;11.68;;;;;;;;;;5076485;28;20376;-81
2024/01/20 04:15:43;;;;;;;13.90;12.30;;;;;;;;;;5076644;28;20386;-79
2024/01/20 04:18:10;;;;;;;14.30;12.48;;;;;;;;;;5076752;28;20741;-80
2024/01/20 04:20:35;;;;;;;14.23;11.87;;;;;;;;;;5076071;28;20434;-80
2024/01/20 04:23:01;;;;;;;13.02;11.68;;;;;;;;;;5076288;28;20383;-79
2024/01/20 04:25:27;;;;;;;13.93;11.90;;;;;;;;;;5076436;28;20906;-79
2024/01/20 04:27:53;;;;;;;12.95;10.93;;;;;;;;;;5075906;28;20463;-80
2024/01/20 04:30:19;;;;;;;13.47;11.00;;;;;;;;;;5076497;28;20553;-79
2024/01/20 04:32:45;;;;;;;14.60;11.30;;;;;;;;;;5076386;28;20846;-79
2024/01/20 04:35:11;;;;;;;12.65;11.32;;;;;;;;;;5076590;28;20608;-80
2024/01/20 04:37:39;;;;;;;13.73;11.88;;;;;;;;;;5075509;28;20384;-79
2024/01/20 04:40:05;;;;;;;13.80;11.95;;;;;;;;;;5075278;28;20872;-80
2024/01/20 04:42:31;;;;;;;13.17;11.77;;;;;;;;;;5076147;28;20910;-79
2024/01/20 04:44:57;;;;;;;13.77;12.00;;;;;;;;;;5075549;28;20384;-79
2024/01/20 04:47:24;;;;;;;13.98;11.95;;;;;;;;;;5075595;28;20425;-80
2024/01/20 04:49:53;;;;;;;13.20;11.85;;;;;;;;;;5075666;28;20379;-80
2024/01/20 04:52:20;;;;;;;13.52;11.98;;;;;;;;;;5075287;28;20431;-80
2024/01/20 04:54:46;;;;;;;14.65;11.25;;;;;;;;;;5075596;28;20378;-80
2024/01/20 04:57:12;;;;;;;13.77;11.63;;;;;;;;;;5074873;28;20470;-80
2024/01/20 04:59:38;;;;;;;13.13;11.82;;;;;;;;;;5074869;28;20430;-80
2024/01/20 05:02:04;;;;;;;13.60;11.80;;;;;;;;;;5074986;28;20411;-80
2024/01/20 05:04:30;;;;;;;13.10;11.50;;;;;;;;;;5056975;28;20730;-80
2024/01/20 05:06:56;;;;;;;13.50;11.50;;;;;;;;;;5074355;28;20383;-80
2024/01/20 05:09:22;;;;;;;13.07;11.68;;;;;;;;;;5074663;28;20383;-80
2024/01/20 05:11:48;;;;;;;12.43;11.03;;;;;;;;;;5074418;28;20910;-80
2024/01/20 05:14:14;;;;;;;14.20;12.13;;;;;;;;;;5074517;28;20387;-80
2024/01/20 05:16:40;;;;;;;12.45;11.20;;;;;;;;;;5074415;28;20375;-80
2024/01/20 05:19:06;;;;;;;14.35;12.00;;;;;;;;;;5073471;28;20827;-80
2024/01/20 05:21:32;;;;;;;15.10;11.57;;;;;;;;;;5074143;28;20407;-80
2024/01/20 05:23:58;;;;;;;15.73;12.63;;;;;;;;;;5074188;28;20402;-80
2024/01/20 05:26:24;;;;;;;14.43;11.80;;;;;;;;;;5074393;28;20918;-80
2024/01/20 05:28:50;;;;;;;13.98;12.25;;;;;;;;;;5071831;28;20856;-80
2024/01/20 05:31:16;;;;;;;13.45;11.88;;;;;;;;;;5074069;28;20380;-80
2024/01/20 05:33:42;;;;;;;15.23;12.45;;;;;;;;;;5074452;28;20466;-80
2024/01/20 05:36:12;;;;;;;13.10;11.57;;;;;;;;;;5074746;28;20847;-80
2024/01/20 05:38:38;;;;;;;13.65;11.98;;;;;;;;;;5074637;28;20864;-80
2024/01/20 05:41:04;;;;;;;14.18;12.13;;;;;;;;;;5073899;28;20880;-80
2024/01/20 05:43:30;;;;;;;14.63;12.70;;;;;;;;;;5060931;28;20380;-80
2024/01/20 05:45:56;;;;;;;17.35;13.10;;;;;;;;;;5053494;28;20389;-80
2024/01/20 05:48:22;;;;;;;19.05;14.88;;;;;;;;;;5053765;28;20405;-80
2024/01/20 05:50:48;;;;;;;21.88;16.02;;;;;;;;;;5053680;28;20734;-80
2024/01/20 05:53:14;;;;;;;20.45;15.77;;;;;;;;;;5035565;28;20381;-80
2024/01/20 05:55:40;;;;;;;20.08;16.48;;;;;;;;;;5054032;28;20894;-80
2024/01/20 05:58:06;;;;;;;14.38;12.82;;;;;;;;;;5055346;28;20397;-80
2024/01/20 06:00:32;;;;;;;13.88;12.38;;;;;;;;;;4991832;28;1795460;-80
2024/01/20 06:02:58;;;;;;;14.73;12.35;;;;;;;;;;5054986;28;20443;-80
2024/01/20 06:05:24;;;;;;;13.70;12.27;;;;;;;;;;5055406;28;20420;-80
2024/01/20 06:07:50;;;;;;;14.63;11.98;;;;;;;;;;5055721;28;20385;-80
2024/01/20 06:10:16;;;;;;;14.40;12.60;;;;;;;;;;5055308;28;20871;-80
2024/01/20 06:12:42;;;;;;;14.55;12.20;;;;;;;;;;5055240;28;20399;-80
2024/01/20 06:15:09;;;;;;;15.10;12.50;;;;;;;;;;5055230;28;20777;-80
2024/01/20 06:17:35;;;;;;;15.50;13.18;;;;;;;;;;5054892;28;20382;-80
2024/01/20 06:20:01;;;;;;;16.40;13.43;;;;;;;;;;5055084;28;20391;-80
2024/01/20 06:22:29;;;;;;;16.67;13.23;;;;;;;;;;5054926;28;20464;-80
2024/01/20 06:24:55;;;;;;;16.55;14.10;;;;;;;;;;5054906;28;20430;-80
2024/01/20 06:27:21;;;;;;;22.50;16.40;;;;;;;;;;5054270;28;20454;-79
2024/01/20 06:29:47;;;;;;;25.02;18.98;;;;;;;;;;5053814;28;20378;-80
2024/01/20 06:32:13;;;;;;;24.23;18.80;;;;;;;;;;5054139;28;20759;-79
2024/01/20 06:34:39;;;;;;;26.15;19.77;;;;;;;;;;5054088;28;20377;-81
2024/01/20 06:37:06;;;;;;;24.27;19.53;;;;;;;;;;5053599;28;20771;-81
2024/01/20 06:39:32;;;;;;;23.60;19.30;;;;;;;;;;5053469;28;20393;-79
2024/01/20 06:41:58;;;;;;;23.73;18.27;;;;;;;;;;5053285;28;20416;-80
2024/01/20 06:44:24;;;;;;;23.52;17.85;;;;;;;;;;5053318;28;20455;-81
2024/01/20 06:46:50;;;;;;;19.90;16.55;;;;;;;;;;5053087;28;20381;-80
2024/01/20 06:49:16;;;;;;;18.80;14.98;;;;;;;;;;5053454;28;20378;-80
2024/01/20 06:51:43;;;;;;;17.35;14.90;;;;;;;;;;5053264;28;20384;-81
2024/01/20 06:54:09;;;;;;;17.60;14.30;;;;;;;;;;5053228;28;20384;-80
2024/01/20 06:56:35;;;;;;;18.42;14.57;;;;;;;;;;5053183;28;20396;-80
2024/01/20 06:59:01;;;;;;;17.85;14.50;;;;;;;;;;5052038;28;20378;-81
2024/01/20 07:01:27;;;;;;;19.75;14.88;;;;;;;;;;5053609;28;20433;-80
2024/01/20 07:03:53;;;;;;;19.45;15.00;;;;;;;;;;5056068;28;20832;-80
2024/01/20 07:06:23;;;;;;;18.20;14.25;;;;;;;;;;5059179;28;20376;-82
2024/01/20 07:08:50;;;;;;;18.88;14.75;;;;;;;;;;5076153;28;20380;-82
2024/01/20 07:11:16;;;;;;;20.90;15.93;;;;;;;;;;5076615;28;20725;-82
2024/01/20 07:13:42;;;;;;;21.60;15.23;;;;;;;;;;5076474;28;20383;-82
2024/01/20 07:16:16;;;;;;;19.67;15.10;;;;;;;;;;5076598;28;20529;-81
2024/01/20 07:18:42;;;;;;;22.13;16.60;;;;;;;;;;5076507;28;20384;-82
2024/01/20 07:21:08;;;;;;;23.08;16.05;;;;;;;;;;5073477;28;20395;-82
2024/01/20 07:23:34;;;;;;;23.27;16.52;;;;;;;;;;5075892;28;20374;-82
2024/01/20 07:26:00;;;;;;;26.08;17.13;;;;;;;;;;5076372;28;20717;-81
2024/01/20 07:28:26;;;;;;;25.75;17.13;;;;;;;;;;5076178;28;20387;-81
2024/01/20 07:30:53;;;;;;;23.20;16.33;;;;;;;;;;5075742;28;20927;-82
2024/01/20 07:33:19;;;;;;;22.52;16.00;;;;;;;;;;5058739;28;20707;-82
2024/01/20 07:35:45;;;;;;;22.10;15.90;;;;;;;;;;5076251;28;20380;-82
2024/01/20 07:38:11;;;;;;;23.35;16.85;;;;;;;;;;5075919;28;20449;-81
2024/01/20 07:40:37;;;;;;;19.63;14.73;;;;;;;;;;5075953;28;20458;-82
2024/01/20 07:43:03;;;;;;;19.05;14.73;;;;;;;;;;5075689;28;20852;-82
2024/01/20 07:45:31;;;;;;;18.13;14.20;;;;;;;;;;5075462;28;20738;-82
2024/01/20 07:47:57;;;;;;;16.77;13.35;;;;;;;;;;5076202;28;20590;-82
2024/01/20 07:50:23;;;;;;;17.67;13.68;;;;;;;;;;5075843;28;20394;-82
2024/01/20 07:52:49;;;;;;;17.45;14.15;;;;;;;;;;5068516;28;20476;-82
2024/01/20 07:55:15;;;;;;;16.08;13.63;;;;;;;;;;5056711;28;20396;-80
2024/01/20 07:57:41;;;;;;;18.02;13.80;;;;;;;;;;5056090;28;20444;-81
2024/01/20 08:00:08;;;;;;;15.43;13.30;;;;;;;;;;5054869;28;20409;-81
2024/01/20 08:02:35;;;;;;;18.05;13.57;;;;;;;;;;5056054;28;20386;-81
2024/01/20 08:05:01;;;;;;;18.63;14.15;;;;;;;;;;5055481;28;20725;-81
2024/01/20 08:07:27;;;;;;;15.60;13.27;;;;;;;;;;5055456;28;20381;-81
2024/01/20 08:09:53;;;;;;;15.03;13.37;;;;;;;;;;5055657;28;20447;-81
2024/01/20 08:12:22;;;;;;;17.55;13.18;;;;;;;;;;5055728;28;20393;-81
2024/01/20 08:14:48;;;;;;;17.20;13.73;;;;;;;;;;5055287;28;20510;-82
2024/01/20 08:17:13;;;;;;;16.85;13.25;;;;;;;;;;5055975;28;20432;-82
2024/01/20 08:19:40;;;;;;;16.23;13.13;;;;;;;;;;5055760;28;20434;-81
2024/01/20 08:22:06;;;;;;;15.98;13.00;;;;;;;;;;5055678;28;20412;-81
2024/01/20 08:24:32;;;;;;;14.27;12.77;;;;;;;;;;5055534;28;20883;-81
2024/01/20 08:26:58;;;;;;;14.90;12.98;;;;;;;;;;5055361;28;20441;-81
2024/01/20 08:29:24;;;;;;;16.60;13.10;;;;;;;;;;5055007;28;20385;-81
2024/01/20 08:31:50;;;;;;;15.05;13.15;;;;;;;;;;5055585;28;20839;-81
2024/01/20 08:34:17;;;;;;;17.00;13.00;;;;;;;;;;5055554;28;20390;-81
2024/01/20 08:36:43;;;;;;;17.88;14.00;;;;;;;;;;5054927;28;20385;-81
2024/01/20 08:39:09;;;;;;;17.27;12.90;;;;;;;;;;5055201;28;20385;-82
2024/01/20 08:41:35;;;;;;;15.25;13.20;;;;;;;;;;5055481;28;20496;-81
2024/01/20 08:44:01;;;;;;;15.55;12.90;;;;;;;;;;5055444;28;20409;-81
2024/01/20 08:46:27;;;;;;;15.00;12.43;;;;;;;;;;5055359;28;20388;-81
2024/01/20 08:48:53;;;;;;;14.52;11.80;;;;;;;;;;5055216;28;20970;-81
2024/01/20 08:51:19;;;;;;;14.43;12.07;;;;;;;;;;5055561;28;20382;-81
2024/01/20 08:53:49;;;;;;;15.80;12.23;;;;;;;;;;5056732;28;20416;-81
2024/01/20 08:56:15;;;;;;;14.90;11.88;;;;;;;;;;5055161;28;20380;-81
2024/01/20 08:58:41;;;;;;;14.13;11.13;;;;;;;;;;5055198;28;20939;-81
2024/01/20 09:01:07;;;;;;;12.90;11.57;;;;;;;;;;5055025;28;20418;-81
2024/01/20 09:03:33;;;;;;;14.02;12.18;;;;;;;;;;5054687;28;20377;-81
2024/01/20 09:05:59;;;;;;;14.25;12.02;;;;;;;;;;5059684;28;20788;-81
2024/01/20 09:08:25;;;;;;;15.00;12.60;;;;;;;;;;5074875;28;20447;-81
2024/01/20 09:10:51;;;;;;;13.27;11.82;;;;;;;;;;5075590;28;20415;-81
2024/01/20 09:13:17;;;;;;;14.15;12.10;;;;;;;;;;5075409;28;20379;-81
2024/01/20 09:15:44;;;;;;;14.40;12.45;;;;;;;;;;5075076;28;20441;-81
2024/01/20 09:18:11;;;;;;;16.40;12.63;;;;;;;;;;5072719;28;20387;-80
2024/01/20 09:20:37;;;;;;;22.55;12.45;;;;;;;;;;5075303;28;20419;-80
2024/01/20 09:23:03;;;;;;;14.10;11.93;;;;;;;;;;5075160;28;20372;-80
2024/01/20 09:25:29;;;;;;;16.20;11.63;;;;;;;;;;5074251;28;20388;-80
2024/01/20 09:27:55;;;;;;;13.05;10.70;;;;;;;;;;5074600;28;20437;-80
2024/01/20 09:30:22;;;;;;;15.80;12.07;;;;;;;;;;5075131;28;20383;-80
2024/01/20 09:32:48;;;;;;;13.68;11.18;;;;;;;;;;5074801;28;20372;-80
2024/01/20 09:35:14;;;;;;;13.68;10.98;;;;;;;;;;5075171;28;20868;-80
2024/01/20 09:37:40;;;;;;;13.13;11.60;;;;;;;;;;5075283;28;20426;-80
2024/01/20 09:40:07;;;;;;;12.45;11.10;;;;;;;;;;5075401;28;20379;-80
2024/01/20 09:42:33;;;;;;;13.52;10.82;;;;;;;;;;5075352;28;20430;-80
2024/01/20 09:44:59;;;;;;;13.32;11.38;;;;;;;;;;5055193;28;20387;-80
2024/01/20 09:47:25;;;;;;;14.57;11.50;;;;;;;;;;5074713;28;20841;-80
2024/01/20 09:49:51;;;;;;;14.40;10.95;;;;;;;;;;5074431;28;20378;-80
2024/01/20 09:52:23;;;;;;;25.73;11.77;;;;;;;;;;5074780;28;20471;-80
2024/01/20 09:54:58;;;;;;;13.05;10.32;;;;;;;;;;5056588;28;20425;-80
2024/01/20 09:57:24;;;;;;;13.68;11.20;;;;;;;;;;5073882;28;20398;-80
2024/01/20 09:59:51;;;;;;;12.63;11.30;;;;;;;;;;5074098;28;20737;-81
2024/01/20 10:02:18;;;;;;;13.95;11.05;;;;;;;;;;5074458;28;20399;-81
2024/01/20 10:04:45;;;;;;;14.55;11.15;;;;;;;;;;5074752;28;20491;-81
2024/01/20 10:07:11;;;;;;;16.80;10.63;;;;;;;;;;5074764;28;20376;-80
2024/01/20 10:09:38;;;;;;;15.00;10.83;;;;;;;;;;5074256;28;20496;-81
2024/01/20 10:12:04;;;;;;;14.80;11.35;;;;;;;;;;5074536;28;20379;-81
2024/01/20 10:14:30;;;;;;;13.27;10.70;;;;;;;;;;5073648;28;20376;-80
2024/01/20 10:16:56;;;;;;;14.63;10.60;;;;;;;;;;5073171;28;20383;-81
2024/01/20 10:19:22;;;;;;;11.93;10.02;;;;;;;;;;5073729;28;20376;-81
2024/01/20 10:21:49;;;;;;;13.32;9.73;;;;;;;;;;5073444;28;20943;-82
2024/01/20 10:24:21;;;;;;;11.98;10.13;;;;;;;;;;5073670;28;20376;-83
2024/01/20 10:26:48;;;;;;;16.95;10.63;;;;;;;;;;5073833;28;20416;-82
2024/01/20 10:29:14;;;;;;;11.48;9.48;;;;;;;;;;5074188;28;20771;-82
2024/01/20 10:31:41;;;;;;;11.85;10.02;;;;;;;;;;5074038;28;20380;-80
2024/01/20 10:34:07;;;;;;;10.57;9.50;;;;;;;;;;5074001;28;21110;-81
2024/01/20 10:36:33;;;;;;;17.40;9.93;;;;;;;;;;5074384;28;20429;-81
2024/01/20 10:39:02;;;;;;;15.23;9.00;;;;;;;;;;5078389;28;20383;-82
2024/01/20 10:41:28;;;;;;;11.00;9.27;;;;;;;;;;5078985;28;20408;-81
2024/01/20 10:43:59;;;;;;;10.13;8.70;;;;;;;;;;5078060;28;20382;-83
2024/01/20 10:46:29;;;;;;;13.00;9.80;;;;;;;;;;5077502;28;20428;-81
2024/01/20 10:48:59;;;;;;;13.35;10.75;;;;;;;;;;5077999;28;20857;-82
2024/01/20 10:51:28;;;;;;;19.47;9.57;;;;;;;;;;5077915;28;20392;-82
2024/01/20 10:53:56;;;;;;;22.43;12.83;;;;;;;;;;5077805;28;20398;-82
2024/01/20 10:56:24;;;;;;;14.55;9.93;;;;;;;;;;5077098;28;20668;-82
2024/01/20 10:58:59;;;;;;;12.55;9.25;;;;;;;;;;5077548;28;20983;-82
2024/01/20 11:01:26;;;;;;;10.70;8.48;;;;;;;;;;5077102;28;20418;-82
2024/01/20 11:03:52;;;;;;;14.60;9.70;;;;;;;;;;5076882;28;20375;-82
2024/01/20 11:06:21;;;;;;;13.43;9.90;;;;;;;;;;5076624;28;20395;-82
2024/01/20 11:08:51;;;;;;;20.70;10.32;;;;;;;;;;5076974;28;20462;-82
2024/01/20 11:11:19;;;;;;;14.60;9.88;;;;;;;;;;5076779;28;20959;-82
2024/01/20 11:13:46;;;;;;;16.02;10.32;;;;;;;;;;5076101;28;20436;-82
2024/01/20 11:16:20;;;;;;;12.25;9.52;;;;;;;;;;5076421;28;20432;-82
2024/01/20 11:18:46;;;;;;;12.70;9.63;;;;;;;;;;5077072;28;20387;-82
2024/01/20 11:21:15;;;;;;;11.82;9.75;;;;;;;;;;5077005;28;20900;-82
2024/01/20 11:23:45;;;;;;;12.10;9.10;;;;;;;;;;5076853;28;20422;-82
2024/01/20 11:26:11;;;;;;;12.95;9.20;;;;;;;;;;5074631;28;20455;-82
2024/01/20 11:28:40;;;;;;;11.77;8.75;;;;;;;;;;5076986;28;20850;-82
2024/01/20 11:31:06;;;;;;;12.18;9.13;;;;;;;;;;5059188;28;20387;-82
2024/01/20 11:33:32;;;;;;;12.82;8.55;;;;;;;;;;5076641;28;20380;-82
2024/01/20 11:36:00;;;;;;;9.15;8.23;;;;;;;;;;5076727;28;20741;-81
2024/01/20 11:38:26;;;;;;;11.45;8.63;;;;;;;;;;5076012;28;20421;-82
2024/01/20 11:41:01;;;;;;;12.02;8.70;;;;;;;;;;5057856;28;20473;-81
2024/01/20 11:43:27;;;;;;;11.18;8.55;;;;;;;;;;5056444;28;20914;-81
2024/01/20 11:45:54;;;;;;;9.60;7.57;;;;;;;;;;5056375;28;20373;-81
2024/01/20 11:48:21;;;;;;;12.10;8.77;;;;;;;;;;5056645;28;20388;-83
2024/01/20 11:50:47;;;;;;;12.77;8.43;;;;;;;;;;5056763;28;20408;-82
2024/01/20 11:53:13;;;;;;;32.75;9.38;;;;;;;;;;5056729;28;20863;-79
2024/01/20 11:55:39;;;;;;;10.00;8.02;;;;;;;;;;5056231;28;20919;-79
2024/01/20 11:58:05;;;;;;;13.43;8.38;;;;;;;;;;5055394;28;20870;-79
2024/01/20 12:00:31;;;;;;;10.02;8.52;;;;;;;;;;5034513;28;20431;-79
2024/01/20 12:02:57;;;;;;;8.55;7.65;;;;;;;;;;5035824;28;20391;-79
2024/01/20 12:05:23;;;;;;;19.70;12.65;;;;;;;;;;5035828;28;20389;-79
2024/01/20 12:07:50;;;;;;;33.58;13.05;;;;;;;;;;5036010;28;20385;-80
2024/01/20 12:10:16;;;;;;;24.33;12.60;;;;;;;;;;5034746;28;20396;-80
2024/01/20 12:12:42;;;;;;;13.75;9.00;;;;;;;;;;5035261;28;20465;-80
2024/01/20 12:15:09;;;;;;;15.65;10.55;;;;;;;;;;5034790;28;20466;-80
2024/01/20 12:17:35;;;;;;;41.05;17.63;;;;;;;;;;5034940;28;20437;-80
2024/01/20 12:20:01;;;;;;;93.65;31.50;;;;;;;;;;5035197;28;20386;-80
2024/01/20 12:22:27;;;;;;;13.02;9.32;;;;;;;;;;5035172;28;20472;-80
2024/01/20 12:24:55;;;;;;;8.02;7.22;;;;;;;;;;5035062;28;20829;-80
2024/01/20 12:27:22;;;;;;;8.82;7.25;;;;;;;;;;5034697;28;20414;-80
2024/01/20 12:29:48;;;;;;;8.85;7.60;;;;;;;;;;5035203;28;20452;-80
2024/01/20 12:32:15;;;;;;;11.27;8.40;;;;;;;;;;5035105;28;20453;-80
2024/01/20 12:34:41;;;;;;;13.55;7.90;;;;;;;;;;5034719;28;20390;-80
2024/01/20 12:37:07;;;;;;;19.05;8.68;;;;;;;;;;5034232;28;20394;-80
2024/01/20 12:39:33;;;;;;;9.45;7.25;;;;;;;;;;5034588;28;20383;-80
2024/01/20 12:41:59;;;;;;;10.40;8.23;;;;;;;;;;5034456;28;20504;-79
2024/01/20 12:44:25;;;;;;;14.50;8.35;;;;;;;;;;5034506;28;20380;-80
2024/01/20 12:46:52;;;;;;;10.10;7.15;;;;;;;;;;5034842;28;21090;-80
2024/01/20 12:49:20;;;;;;;13.38;8.40;;;;;;;;;;5035063;28;20390;-80
2024/01/20 12:51:46;;;;;;;9.13;7.57;;;;;;;;;;5034749;28;20394;-80
2024/01/20 12:54:13;;;;;;;10.30;7.65;;;;;;;;;;5034874;28;20891;-80
2024/01/20 12:56:39;;;;;;;8.27;7.40;;;;;;;;;;5034786;28;20470;-80
2024/01/20 12:59:05;;;;;;;11.82;7.78;;;;;;;;;;5036875;28;20444;-80
2024/01/20 13:01:31;;;;;;;8.93;7.15;;;;;;;;;;5054051;28;20420;-79
2024/01/20 13:03:57;;;;;;;25.08;7.93;;;;;;;;;;5053707;28;20393;-78
2024/01/20 13:06:23;;;;;;;12.65;7.68;;;;;;;;;;5056526;28;20371;-80
2024/01/20 13:08:50;;;;;;;11.43;8.07;;;;;;;;;;5073892;28;20406;-79
2024/01/20 13:11:16;;;;;;;7.82;6.35;;;;;;;;;;5073870;28;20425;-79
2024/01/20 13:13:42;;;;;;;9.63;6.80;;;;;;;;;;5074214;28;20392;-79
2024/01/20 13:16:08;;;;;;;8.93;6.55;;;;;;;;;;5073972;28;20387;-79
2024/01/20 13:18:34;;;;;;;9.73;6.73;;;;;;;;;;5074168;28;20722;-79
2024/01/20 13:21:00;;;;;;;10.13;6.78;;;;;;;;;;5074113;28;20488;-79
2024/01/20 13:23:27;;;;;;;8.07;5.95;;;;;;;;;;5057904;28;20373;-79
2024/01/20 13:25:55;;;;;;;6.95;5.85;;;;;;;;;;5054035;28;20404;-79
2024/01/20 13:28:23;;;;;;;5.85;5.22;;;;;;;;;;5054092;28;20381;-79
2024/01/20 13:30:49;;;;;;;11.25;6.22;;;;;;;;;;5053863;28;20385;-79
2024/01/20 13:33:15;;;;;;;7.35;5.70;;;;;;;;;;5053876;28;20383;-79
2024/01/20 13:35:41;;;;;;;41.70;17.45;;;;;;;;;;5053785;28;20476;-79
2024/01/20 13:38:08;;;;;;;59.33;24.63;;;;;;;;;;5053602;28;20738;-79
2024/01/20 13:40:34;;;;;;;8.55;6.13;;;;;;;;;;5053341;28;20814;-79
2024/01/20 13:43:00;;;;;;;21.77;13.38;;;;;;;;;;5060189;28;20375;-79
2024/01/20 13:45:26;;;;;;;16.75;11.07;;;;;;;;;;5073877;28;20766;-79
2024/01/20 13:47:52;;;;;;;45.20;25.30;;;;;;;;;;5074103;28;20387;-79
2024/01/20 13:50:18;;;;;;;75.10;39.53;;;;;;;;;;5073874;28;20467;-79
2024/01/20 13:52:44;;;;;;;9.53;7.37;;;;;;;;;;5073863;28;20429;-79
2024/01/20 13:55:10;;;;;;;7.25;6.10;;;;;;;;;;5073374;28;20387;-79
2024/01/20 13:57:36;;;;;;;10.43;5.97;;;;;;;;;;5055800;28;20850;-79
2024/01/20 14:00:02;;;;;;;10.00;5.65;;;;;;;;;;5073362;28;20422;-80
2024/01/20 14:02:28;;;;;;;7.35;6.28;;;;;;;;;;5073375;28;20414;-80
2024/01/20 14:04:56;;;;;;;17.85;6.15;;;;;;;;;;5073663;28;20378;-79
2024/01/20 14:07:22;;;;;;;8.25;5.50;;;;;;;;;;5072190;28;20376;-78
2024/01/20 14:09:48;;;;;;;6.53;5.83;;;;;;;;;;5073049;28;20371;-79
2024/01/20 14:12:14;;;;;;;6.80;5.68;;;;;;;;;;5072335;28;20419;-80
2024/01/20 14:14:40;;;;;;;7.57;5.78;;;;;;;;;;5073537;28;20425;-80
2024/01/20 14:17:07;;;;;;;6.70;6.00;;;;;;;;;;5073689;28;20378;-80
2024/01/20 14:19:33;;;;;;;6.30;5.63;;;;;;;;;;5073220;28;20383;-80